createdAt,value
2022-11-03T00:00:01.773Z,11.1
2022-11-03T00:01:01.468Z,11
2022-11-03T00:02:01.572Z,11.1
2022-11-03T00:03:01.934Z,11.1
2022-11-03T00:04:02.235Z,11.1
2022-11-03T00:05:02.283Z,11.1
2022-11-03T00:06:02.102Z,11.1
2022-11-03T00:07:02.093Z,11.2
2022-11-03T00:08:01.991Z,11.3
2022-11-03T00:09:02.110Z,11.2
2022-11-03T00:10:02.129Z,11.1
2022-11-03T00:11:02.004Z,11.1
2022-11-03T00:12:01.909Z,11.1
2022-11-03T00:13:02.511Z,11.2
2022-11-03T00:14:01.999Z,11.1
2022-11-03T00:15:01.935Z,11.1
2022-11-03T00:16:01.642Z,11
2022-11-03T00:17:01.683Z,11.1
2022-11-03T00:18:01.549Z,11
2022-11-03T00:19:01.575Z,11
2022-11-03T00:20:01.392Z,11
2022-11-03T00:21:01.484Z,10.9
2022-11-03T00:22:02.412Z,10.8
2022-11-03T00:23:02.262Z,10.7
2022-11-03T00:24:01.511Z,10.7
2022-11-03T00:25:02.428Z,10.7
2022-11-03T00:26:02.284Z,10.8
2022-11-03T00:27:02.308Z,10.7
2022-11-03T00:29:01.472Z,10.7
2022-11-03T00:30:01.612Z,10.5
2022-11-03T00:31:02.331Z,10.7
2022-11-03T00:32:02.180Z,10.6
2022-11-03T00:33:02.226Z,10.7
2022-11-03T00:34:01.473Z,10.7
2022-11-03T00:35:01.430Z,10.7
2022-11-03T00:36:02.365Z,10.6
2022-11-03T00:37:02.220Z,10.8
2022-11-03T00:38:02.206Z,10.7
2022-11-03T00:39:02.070Z,10.6
2022-11-03T00:40:02.113Z,10.7
2022-11-03T00:41:01.968Z,10.6
2022-11-03T00:42:01.971Z,10.7
2022-11-03T00:43:02.000Z,10.7
2022-11-03T00:44:01.950Z,10.4
2022-11-03T00:45:02.042Z,10.4
2022-11-03T00:46:01.610Z,10.5
2022-11-03T00:47:01.638Z,10.5
2022-11-03T00:48:01.475Z,10.5
2022-11-03T00:49:01.497Z,10.6
2022-11-03T00:50:01.371Z,10.5
2022-11-03T00:51:02.370Z,10.5
2022-11-03T00:52:02.215Z,10.5
2022-11-03T00:53:02.281Z,10.5
2022-11-03T00:54:01.607Z,10.4
2022-11-03T00:55:01.633Z,10.4
2022-11-03T00:56:01.441Z,10.4
2022-11-03T00:57:01.462Z,10.4
2022-11-03T00:58:02.421Z,10.4
2022-11-03T00:59:02.251Z,10.4
2022-11-03T01:00:02.294Z,10.4
2022-11-03T01:01:01.893Z,10.4
2022-11-03T01:02:02.081Z,10.4
2022-11-03T01:03:01.366Z,10.4
2022-11-03T01:04:02.388Z,10.3
2022-11-03T01:05:02.252Z,10.3
2022-11-03T01:06:02.232Z,10.3
2022-11-03T01:07:02.124Z,10.3
2022-11-03T01:08:02.108Z,10.3
2022-11-03T01:09:01.976Z,10.3
2022-11-03T01:10:01.853Z,10.4
2022-11-03T01:11:01.882Z,10.3
2022-11-03T01:12:01.726Z,10.4
2022-11-03T01:13:01.782Z,10.4
2022-11-03T01:14:01.645Z,10.4
2022-11-03T01:15:01.700Z,10.4
2022-11-03T01:16:01.409Z,10.4
2022-11-03T01:17:01.475Z,10.4
2022-11-03T01:18:02.435Z,10.4
2022-11-03T01:19:02.273Z,10.5
2022-11-03T01:20:02.292Z,10.4
2022-11-03T01:21:02.136Z,10.3
2022-11-03T01:22:04.211Z,10.4
2022-11-03T01:23:01.890Z,10.4
2022-11-03T01:24:01.862Z,10.4
2022-11-03T01:25:01.878Z,10.4
2022-11-03T01:26:01.803Z,10.4
2022-11-03T01:27:01.733Z,10.5
2022-11-03T01:28:01.804Z,10.3
2022-11-03T01:29:01.644Z,10.3
2022-11-03T01:30:01.646Z,10.3
2022-11-03T01:31:02.441Z,10.3
2022-11-03T01:32:02.288Z,10.3
2022-11-03T01:33:02.345Z,10.3
2022-11-03T01:34:01.657Z,10.4
2022-11-03T01:35:01.647Z,10.3
2022-11-03T01:36:01.516Z,10.3
2022-11-03T01:37:01.481Z,10.2
2022-11-03T01:38:02.396Z,10.3
2022-11-03T01:39:02.233Z,10.4
2022-11-03T01:40:02.299Z,10.2
2022-11-03T01:41:02.136Z,10.2
2022-11-03T01:42:02.112Z,10.3
2022-11-03T01:43:02.040Z,10.2
2022-11-03T01:44:02.058Z,10.2
2022-11-03T01:45:02.105Z,10.3
2022-11-03T01:46:01.676Z,10.4
2022-11-03T01:47:01.708Z,10.4
2022-11-03T01:48:01.497Z,10.2
2022-11-03T01:49:01.529Z,10.3
2022-11-03T01:50:01.308Z,10.2
2022-11-03T01:51:02.385Z,10.1
2022-11-03T01:52:02.258Z,10.1
2022-11-03T01:53:02.284Z,10.2
2022-11-03T01:54:02.151Z,10.2
2022-11-03T01:55:02.175Z,10.2
2022-11-03T01:56:02.021Z,10
2022-11-03T01:57:01.966Z,10.1
2022-11-03T01:58:01.960Z,10
2022-11-03T01:59:01.748Z,9.9
2022-11-03T02:00:01.637Z,9.9
2022-11-03T02:01:01.688Z,10.1
2022-11-03T02:02:01.969Z,10
2022-11-03T02:03:02.366Z,10
2022-11-03T02:04:02.196Z,10
2022-11-03T02:05:02.231Z,10
2022-11-03T02:06:02.061Z,10
2022-11-03T02:07:02.063Z,9.9
2022-11-03T02:08:01.890Z,10
2022-11-03T02:09:02.100Z,10.1
2022-11-03T02:10:02.077Z,10
2022-11-03T02:11:01.928Z,10
2022-11-03T02:12:01.936Z,10
2022-11-03T02:13:01.929Z,10.1
2022-11-03T02:14:01.735Z,10.1
2022-11-03T02:15:01.682Z,10
2022-11-03T02:16:01.555Z,10
2022-11-03T02:17:01.552Z,10
2022-11-03T02:18:01.379Z,10
2022-11-03T02:19:02.414Z,10.1
2022-11-03T02:20:02.287Z,10.2
2022-11-03T02:21:02.297Z,10
2022-11-03T02:22:02.141Z,10.1
2022-11-03T02:23:02.194Z,10.1
2022-11-03T02:24:02.044Z,10.1
2022-11-03T02:25:02.089Z,10.1
2022-11-03T02:26:02.049Z,10.2
2022-11-03T02:27:01.980Z,10.2
2022-11-03T02:28:01.970Z,10
2022-11-03T02:29:01.838Z,10
2022-11-03T02:30:01.747Z,10.1
2022-11-03T02:31:01.798Z,10
2022-11-03T02:32:01.736Z,10.1
2022-11-03T02:33:01.644Z,10.1
2022-11-03T02:34:01.627Z,10.1
2022-11-03T02:35:01.434Z,10.1
2022-11-03T02:36:01.416Z,10.1
2022-11-03T02:37:02.425Z,10.2
2022-11-03T02:38:02.254Z,10.2
2022-11-03T02:39:02.305Z,10.2
2022-11-03T02:40:02.146Z,10
2022-11-03T02:41:02.255Z,10.1
2022-11-03T02:42:02.118Z,10.1
2022-11-03T02:43:02.187Z,10.1
2022-11-03T02:44:02.262Z,10.1
2022-11-03T02:45:02.109Z,10.1
2022-11-03T02:46:01.886Z,9.9
2022-11-03T02:47:01.942Z,9.9
2022-11-03T02:48:01.856Z,10
2022-11-03T02:49:01.785Z,10
2022-11-03T02:50:01.921Z,9.9
2022-11-03T02:51:01.706Z,9.9
2022-11-03T02:52:01.736Z,9.8
2022-11-03T02:53:01.573Z,9.8
2022-11-03T02:54:01.551Z,9.8
2022-11-03T02:55:01.344Z,9.9
2022-11-03T02:56:02.380Z,9.9
2022-11-03T02:57:02.213Z,9.9
2022-11-03T02:58:02.281Z,9.7
2022-11-03T02:59:02.080Z,9.8
2022-11-03T03:00:02.156Z,9.8
2022-11-03T03:01:01.855Z,9.8
2022-11-03T03:02:02.054Z,9.9
2022-11-03T03:03:02.372Z,9.8
2022-11-03T03:04:01.572Z,9.8
2022-11-03T03:05:01.608Z,9.9
2022-11-03T03:06:01.430Z,9.8
2022-11-03T03:07:01.471Z,9.8
2022-11-03T03:08:02.388Z,9.7
2022-11-03T03:09:02.258Z,9.8
2022-11-03T03:10:02.322Z,9.8
2022-11-03T03:11:02.184Z,9.8
2022-11-03T03:12:02.246Z,9.7
2022-11-03T03:13:02.084Z,9.6
2022-11-03T03:14:02.077Z,9.6
2022-11-03T03:15:01.925Z,9.7
2022-11-03T03:16:01.629Z,9.6
2022-11-03T03:17:01.585Z,9.6
2022-11-03T03:18:01.419Z,9.5
2022-11-03T03:19:01.453Z,9.5
2022-11-03T03:20:02.356Z,9.4
2022-11-03T03:21:02.264Z,9.4
2022-11-03T03:22:02.272Z,9.4
2022-11-03T03:23:04.131Z,9.5
2022-11-03T03:24:02.280Z,9.4
2022-11-03T03:25:02.341Z,9.5
2022-11-03T03:26:02.182Z,9.4
2022-11-03T03:27:02.278Z,9.5
2022-11-03T03:28:02.109Z,9.5
2022-11-03T03:29:02.165Z,9.4
2022-11-03T03:30:01.996Z,9.5
2022-11-03T03:31:01.615Z,9.3
2022-11-03T03:32:01.641Z,9.3
2022-11-03T03:33:01.459Z,9.3
2022-11-03T03:34:04.707Z,9.3
2022-11-03T03:35:01.347Z,9.4
2022-11-03T03:36:02.411Z,9.2
2022-11-03T03:37:02.217Z,9.2
2022-11-03T03:38:02.259Z,9.2
2022-11-03T03:39:02.240Z,9.2
2022-11-03T03:40:02.320Z,9.2
2022-11-03T03:41:04.464Z,9.2
2022-11-03T03:42:01.426Z,9.2
2022-11-03T03:43:01.482Z,9.2
2022-11-03T03:44:02.427Z,9.2
2022-11-03T03:45:02.280Z,9.1
2022-11-03T03:46:02.043Z,9.2
2022-11-03T03:47:02.034Z,9.1
2022-11-03T03:48:01.828Z,9.1
2022-11-03T03:49:01.787Z,9.1
2022-11-03T03:50:01.823Z,9.1
2022-11-03T03:51:01.690Z,9.1
2022-11-03T03:52:01.747Z,9.1
2022-11-03T03:53:01.545Z,9
2022-11-03T03:54:01.548Z,9.1
2022-11-03T03:55:01.358Z,9.1
2022-11-03T03:56:02.408Z,9
2022-11-03T03:57:02.264Z,9
2022-11-03T03:58:02.314Z,9.1
2022-11-03T03:59:02.179Z,9.1
2022-11-03T04:00:02.210Z,9.1
2022-11-03T04:01:01.812Z,9.1
2022-11-03T04:02:01.914Z,9.2
2022-11-03T04:03:02.152Z,9
2022-11-03T04:04:02.094Z,9
2022-11-03T04:05:02.161Z,9
2022-11-03T04:06:01.977Z,8.9
2022-11-03T04:07:01.907Z,8.9
2022-11-03T04:08:01.952Z,9
2022-11-03T04:09:01.733Z,9
2022-11-03T04:10:01.702Z,9
2022-11-03T04:11:01.719Z,9
2022-11-03T04:12:01.532Z,9
2022-11-03T04:13:01.548Z,9
2022-11-03T04:14:01.364Z,9
2022-11-03T04:15:02.390Z,9
2022-11-03T04:16:02.054Z,9
2022-11-03T04:17:02.063Z,8.9
2022-11-03T04:18:01.867Z,8.9
2022-11-03T04:19:01.945Z,8.9
2022-11-03T04:20:01.973Z,8.8
2022-11-03T04:21:01.809Z,8.9
2022-11-03T04:22:01.762Z,8.9
2022-11-03T04:23:01.806Z,8.9
2022-11-03T04:24:01.712Z,8.9
2022-11-03T04:25:01.647Z,8.9
2022-11-03T04:26:01.475Z,8.8
2022-11-03T04:27:01.500Z,8.8
2022-11-03T04:28:02.416Z,8.9
2022-11-03T04:29:01.386Z,8.8
2022-11-03T04:30:02.406Z,8.8
2022-11-03T04:31:02.001Z,8.9
2022-11-03T04:32:02.088Z,8.9
2022-11-03T04:33:01.972Z,8.9
2022-11-03T04:34:01.860Z,9
2022-11-03T04:35:01.915Z,8.8
2022-11-03T04:36:01.785Z,8.9
2022-11-03T04:37:01.654Z,8.9
2022-11-03T04:38:01.710Z,9
2022-11-03T04:39:01.607Z,8.9
2022-11-03T04:40:01.616Z,8.9
2022-11-03T04:41:01.704Z,8.8
2022-11-03T04:42:01.784Z,8.7
2022-11-03T04:43:01.834Z,8.8
2022-11-03T04:44:01.669Z,8.9
2022-11-03T04:45:01.664Z,8.9
2022-11-03T04:46:01.342Z,8.9
2022-11-03T04:47:02.391Z,8.9
2022-11-03T04:48:02.235Z,9
2022-11-03T04:49:02.239Z,9
2022-11-03T04:50:02.126Z,8.9
2022-11-03T04:51:02.136Z,8.9
2022-11-03T04:52:01.977Z,8.9
2022-11-03T04:53:01.948Z,8.9
2022-11-03T04:54:01.984Z,9
2022-11-03T04:55:01.757Z,9
2022-11-03T04:56:07.100Z,9
2022-11-03T04:57:02.274Z,8.9
2022-11-03T04:58:02.323Z,9
2022-11-03T04:59:02.170Z,9
2022-11-03T05:00:02.275Z,9
2022-11-03T05:01:01.827Z,8.9
2022-11-03T05:02:02.024Z,8.7
2022-11-03T05:03:01.395Z,8.7
2022-11-03T05:04:02.414Z,8.8
2022-11-03T05:05:02.243Z,8.8
2022-11-03T05:06:02.302Z,8.8
2022-11-03T05:07:02.133Z,8.8
2022-11-03T05:08:02.181Z,8.7
2022-11-03T05:09:02.025Z,8.7
2022-11-03T05:10:02.063Z,8.7
2022-11-03T05:11:01.938Z,8.6
2022-11-03T05:12:01.839Z,8.7
2022-11-03T05:13:01.769Z,8.6
2022-11-03T05:14:02.018Z,8.6
2022-11-03T05:15:01.931Z,8.6
2022-11-03T05:16:01.612Z,8.7
2022-11-03T05:17:01.654Z,8.7
2022-11-03T05:18:01.477Z,8.6
2022-11-03T05:19:01.483Z,8.6
2022-11-03T05:20:02.427Z,8.6
2022-11-03T05:21:02.386Z,8.7
2022-11-03T05:22:02.266Z,8.7
2022-11-03T05:23:02.194Z,8.7
2022-11-03T05:24:02.275Z,8.6
2022-11-03T05:25:02.344Z,8.6
2022-11-03T05:26:02.412Z,8.6
2022-11-03T05:27:02.308Z,8.5
2022-11-03T05:28:02.332Z,8.6
2022-11-03T05:29:02.219Z,8.5
2022-11-03T05:30:02.271Z,8.5
2022-11-03T05:31:02.017Z,8.6
2022-11-03T05:32:02.016Z,8.5
2022-11-03T05:33:01.840Z,8.6
2022-11-03T05:34:01.773Z,8.6
2022-11-03T05:35:01.787Z,8.6
2022-11-03T05:36:01.607Z,8.7
2022-11-03T05:37:01.659Z,8.7
2022-11-03T05:38:01.487Z,8.7
2022-11-03T05:39:01.536Z,8.6
2022-11-03T05:40:01.432Z,8.6
2022-11-03T05:41:01.462Z,8.5
2022-11-03T05:42:01.370Z,8.4
2022-11-03T05:43:02.400Z,8.3
2022-11-03T05:44:02.330Z,8.3
2022-11-03T05:45:02.360Z,8.2
2022-11-03T05:46:01.916Z,8.1
2022-11-03T05:47:03.303Z,7.9
2022-11-03T05:48:02.022Z,8
2022-11-03T05:49:01.951Z,8.1
2022-11-03T05:50:02.020Z,8
2022-11-03T05:51:01.866Z,8.2
2022-11-03T05:52:01.774Z,8.1
2022-11-03T05:53:01.812Z,8.1
2022-11-03T05:54:01.612Z,8.1
2022-11-03T05:55:01.608Z,8
2022-11-03T05:56:01.483Z,8
2022-11-03T05:57:01.509Z,7.8
2022-11-03T05:58:01.383Z,8
2022-11-03T05:59:01.507Z,8
2022-11-03T06:00:01.354Z,8.1
2022-11-03T06:01:01.420Z,8.1
2022-11-03T06:02:01.567Z,8.1
2022-11-03T06:03:01.970Z,8.1
2022-11-03T06:04:02.135Z,8.1
2022-11-03T06:05:02.183Z,7.9
2022-11-03T06:06:02.040Z,7.9
2022-11-03T06:07:01.993Z,8
2022-11-03T06:08:02.012Z,8.2
2022-11-03T06:09:01.824Z,8.1
2022-11-03T06:10:01.811Z,8.1
2022-11-03T06:11:01.856Z,8.1
2022-11-03T06:12:01.643Z,8.1
2022-11-03T06:13:01.711Z,7.9
2022-11-03T06:14:01.555Z,8.1
2022-11-03T06:15:01.667Z,8.3
2022-11-03T06:16:02.379Z,8.3
2022-11-03T06:17:02.257Z,8.3
2022-11-03T06:18:02.336Z,8.4
2022-11-03T06:19:01.823Z,8.5
2022-11-03T06:20:01.838Z,8.5
2022-11-03T06:21:01.685Z,8.4
2022-11-03T06:22:01.701Z,8.3
2022-11-03T06:23:01.500Z,8.3
2022-11-03T06:24:01.539Z,8.4
2022-11-03T06:25:01.349Z,8.5
2022-11-03T06:26:02.419Z,8.5
2022-11-03T06:27:02.281Z,8.5
2022-11-03T06:28:01.495Z,8.3
2022-11-03T06:29:01.373Z,8.2
2022-11-03T06:30:02.442Z,8.3
2022-11-03T06:31:02.160Z,8.4
2022-11-03T06:32:02.226Z,8.5
2022-11-03T06:33:02.094Z,8.3
2022-11-03T06:34:02.113Z,8.2
2022-11-03T06:35:02.062Z,8.2
2022-11-03T06:36:02.107Z,8.4
2022-11-03T06:37:02.008Z,8.6
2022-11-03T06:38:01.905Z,8.7
2022-11-03T06:39:01.877Z,8.7
2022-11-03T06:40:01.936Z,8.8
2022-11-03T06:41:01.735Z,8.9
2022-11-03T06:42:01.801Z,8.9
2022-11-03T06:43:01.682Z,9.2
2022-11-03T06:44:01.568Z,9.2
2022-11-03T06:45:01.555Z,9.3
2022-11-03T06:46:01.701Z,9.3
2022-11-03T06:47:01.591Z,9.4
2022-11-03T06:48:01.619Z,9.4
2022-11-03T06:49:01.564Z,9.5
2022-11-03T06:50:01.505Z,9.6
2022-11-03T06:51:01.450Z,9.7
2022-11-03T06:52:01.430Z,9.6
2022-11-03T06:53:01.404Z,9.7
2022-11-03T06:54:01.407Z,9.7
2022-11-03T06:55:02.329Z,9.8
2022-11-03T06:56:02.337Z,10.1
2022-11-03T06:57:02.290Z,9.8
2022-11-03T06:58:02.209Z,9.5
2022-11-03T06:59:02.149Z,9.6
2022-11-03T07:00:20.138Z,9.8
2022-11-03T07:01:03.432Z,10.2
2022-11-03T07:02:02.510Z,10.3
2022-11-03T07:03:01.663Z,10.4
2022-11-03T07:04:01.804Z,10.5
2022-11-03T07:05:01.729Z,10.2
2022-11-03T07:06:01.786Z,10.4
2022-11-03T07:07:01.736Z,10.2
2022-11-03T07:08:01.611Z,10.2
2022-11-03T07:09:01.751Z,10.5
2022-11-03T07:10:01.563Z,10.7
2022-11-03T07:11:01.660Z,10.7
2022-11-03T07:12:01.454Z,10.7
2022-11-03T07:13:05.937Z,10.6
2022-11-03T07:14:01.373Z,10.5
2022-11-03T07:15:02.523Z,10.4
2022-11-03T07:16:02.338Z,10.4
2022-11-03T07:17:02.387Z,10.3
2022-11-03T07:18:02.285Z,10.3
2022-11-03T07:19:02.289Z,10.4
2022-11-03T07:20:02.119Z,10.4
2022-11-03T07:21:02.108Z,10.5
2022-11-03T07:22:01.997Z,10.4
2022-11-03T07:23:01.949Z,10.4
2022-11-03T07:24:02.007Z,10.4
2022-11-03T07:25:01.878Z,10.5
2022-11-03T07:26:01.850Z,10.4
2022-11-03T07:27:01.901Z,10.5
2022-11-03T07:28:01.819Z,10.5
2022-11-03T07:29:01.785Z,10.6
2022-11-03T07:30:01.874Z,10.6
2022-11-03T07:31:01.637Z,11
2022-11-03T07:32:01.740Z,11
2022-11-03T07:33:01.520Z,10.9
2022-11-03T07:34:01.570Z,11.2
2022-11-03T07:35:01.406Z,11.2
2022-11-03T07:36:16.061Z,11.4
2022-11-03T07:37:01.896Z,11.9
2022-11-03T07:38:01.998Z,12.2
2022-11-03T07:39:02.076Z,12.5
2022-11-03T07:40:01.918Z,12.8
2022-11-03T07:41:01.930Z,12.4
2022-11-03T07:42:02.001Z,12.3
2022-11-03T07:43:01.837Z,12.2
2022-11-03T07:44:01.813Z,12.2
2022-11-03T07:45:01.937Z,12.3
2022-11-03T07:46:01.603Z,12.2
2022-11-03T07:47:01.908Z,12.4
2022-11-03T07:48:04.385Z,12.6
2022-11-03T07:49:01.851Z,12.6
2022-11-03T07:50:01.911Z,12.6
2022-11-03T07:51:01.803Z,13.1
2022-11-03T07:52:01.642Z,12.9
2022-11-03T07:53:01.679Z,12.7
2022-11-03T07:54:01.484Z,12.8
2022-11-03T07:55:01.507Z,12.9
2022-11-03T07:56:01.426Z,13
2022-11-03T07:57:01.468Z,13.5
2022-11-03T07:58:02.423Z,13.5
2022-11-03T07:59:02.273Z,13.4
2022-11-03T08:00:03.823Z,13.3
2022-11-03T08:01:02.121Z,13.9
2022-11-03T08:02:02.198Z,14.1
2022-11-03T08:03:01.498Z,13.9
2022-11-03T08:04:01.420Z,14.4
2022-11-03T08:05:01.335Z,14.3
2022-11-03T08:06:03.638Z,14
2022-11-03T08:07:02.080Z,14
2022-11-03T08:08:02.013Z,14.2
2022-11-03T08:09:01.955Z,14
2022-11-03T08:10:01.935Z,14.4
2022-11-03T08:11:01.957Z,14.6
2022-11-03T08:12:02.008Z,14.5
2022-11-03T08:13:01.952Z,14.9
2022-11-03T08:14:01.891Z,14.9
2022-11-03T08:15:01.754Z,15.3
2022-11-03T08:16:01.634Z,15.3
2022-11-03T08:17:01.641Z,15.6
2022-11-03T08:18:01.440Z,15.8
2022-11-03T08:19:01.361Z,15.8
2022-11-03T08:20:02.370Z,16
2022-11-03T08:21:02.256Z,15.5
2022-11-03T08:22:02.229Z,15.6
2022-11-03T08:23:24.380Z,15.9
2022-11-03T08:24:01.350Z,15.8
2022-11-03T08:25:02.297Z,15.4
2022-11-03T08:26:02.219Z,15.6
2022-11-03T08:27:02.171Z,15.6
2022-11-03T08:28:02.121Z,15.6
2022-11-03T08:29:02.009Z,15.5
2022-11-03T08:30:01.970Z,15.7
2022-11-03T08:31:02.367Z,15.6
2022-11-03T08:32:01.411Z,15.8
2022-11-03T08:33:02.321Z,15.6
2022-11-03T08:34:02.345Z,15.5
2022-11-03T08:35:02.308Z,15.3
2022-11-03T08:36:02.279Z,15.2
2022-11-03T08:37:01.451Z,15.4
2022-11-03T08:38:01.391Z,15.3
2022-11-03T08:39:02.330Z,15.4
2022-11-03T08:40:02.285Z,15.6
2022-11-03T08:41:02.319Z,15.6
2022-11-03T08:42:02.288Z,15.5
2022-11-03T08:43:01.378Z,15.5
2022-11-03T08:44:01.363Z,15.6
2022-11-03T08:45:02.375Z,15.7
2022-11-03T08:46:06.731Z,15.7
2022-11-03T08:47:01.975Z,15.7
2022-11-03T08:48:01.946Z,15.8
2022-11-03T08:49:01.926Z,15.7
2022-11-03T08:50:01.825Z,15.8
2022-11-03T08:51:01.813Z,15.8
2022-11-03T08:52:01.805Z,15.9
2022-11-03T08:53:01.752Z,15.7
2022-11-03T08:54:01.727Z,15.9
2022-11-03T08:55:01.660Z,16
2022-11-03T08:56:01.560Z,15.9
2022-11-03T08:57:01.518Z,16.2
2022-11-03T08:58:01.453Z,16.3
2022-11-03T08:59:01.408Z,16.4
2022-11-03T09:00:01.349Z,16.6
2022-11-03T09:01:01.505Z,16.4
2022-11-03T09:02:01.511Z,16.3
2022-11-03T09:03:01.658Z,16.6
2022-11-03T09:04:01.689Z,16.6
2022-11-03T09:05:01.852Z,16.6
2022-11-03T09:06:01.852Z,16.7
2022-11-03T09:07:01.748Z,16.8
2022-11-03T09:11:01.657Z,16.7
2022-11-03T09:12:01.624Z,16.8
2022-11-03T09:13:01.542Z,17
2022-11-03T09:14:01.505Z,16.6
2022-11-03T09:15:01.453Z,17
2022-11-03T09:16:01.509Z,16.9
2022-11-03T09:18:01.408Z,17.5
2022-11-03T09:19:01.392Z,17.3
2022-11-03T09:20:02.345Z,17.5
2022-11-03T09:21:02.310Z,17.7
2022-11-03T09:22:02.284Z,17.8
2022-11-03T09:23:02.295Z,17.6
2022-11-03T09:24:02.241Z,17.7
2022-11-03T09:25:02.209Z,17.8
2022-11-03T09:26:02.154Z,17.9
2022-11-03T09:27:02.425Z,18
2022-11-03T09:28:01.478Z,18
2022-11-03T09:29:01.424Z,18
2022-11-03T09:30:13.082Z,17.8
2022-11-03T09:31:01.471Z,17.9
2022-11-03T09:32:01.441Z,17.8
2022-11-03T09:33:01.391Z,17.4
2022-11-03T09:34:02.358Z,17.2
2022-11-03T09:35:02.301Z,16.7
2022-11-03T09:36:02.260Z,17.5
2022-11-03T09:37:02.224Z,16.7
2022-11-03T09:38:02.186Z,17
2022-11-03T09:39:02.170Z,17.1
2022-11-03T09:40:02.105Z,17.1
2022-11-03T09:41:02.073Z,17.3
2022-11-03T09:42:02.058Z,17.7
2022-11-03T09:43:02.002Z,17.7
2022-11-03T09:44:01.985Z,17.9
2022-11-03T09:45:02.012Z,17.1
2022-11-03T09:46:02.234Z,17.7
2022-11-03T09:47:02.234Z,17.9
2022-11-03T09:48:02.223Z,17.8
2022-11-03T09:49:02.173Z,17.9
2022-11-03T09:50:02.225Z,17.7
2022-11-03T09:51:02.149Z,17.5
2022-11-03T09:52:02.157Z,17.8
2022-11-03T09:53:02.126Z,18.1
2022-11-03T09:54:02.151Z,17.2
2022-11-03T09:55:02.102Z,17.7
2022-11-03T09:56:02.015Z,17.1
2022-11-03T09:57:01.934Z,17.4
2022-11-03T09:58:01.914Z,17.5
2022-11-03T09:59:01.875Z,18
2022-11-03T10:00:01.819Z,18
2022-11-03T10:01:02.055Z,18.2
2022-11-03T10:02:02.187Z,18.1
2022-11-03T10:03:01.718Z,17.5
2022-11-03T10:04:01.516Z,17.7
2022-11-03T10:05:04.373Z,17.9
2022-11-03T10:06:01.898Z,17.8
2022-11-03T10:07:01.834Z,18.2
2022-11-03T10:08:01.726Z,18.2
2022-11-03T10:09:01.714Z,17.7
2022-11-03T10:10:01.647Z,18.2
2022-11-03T10:11:01.618Z,18.5
2022-11-03T10:12:01.472Z,18.3
2022-11-03T10:13:01.402Z,18.2
2022-11-03T10:14:01.344Z,18.3
2022-11-03T10:15:02.305Z,18.2
2022-11-03T10:16:01.457Z,18
2022-11-03T10:17:01.407Z,18.6
2022-11-03T10:18:02.359Z,18.5
2022-11-03T10:19:02.265Z,18.5
2022-11-03T10:20:02.215Z,18.3
2022-11-03T10:21:02.196Z,18.4
2022-11-03T10:22:02.130Z,18.4
2022-11-03T10:23:02.145Z,17.9
2022-11-03T10:24:02.092Z,18
2022-11-03T10:25:02.058Z,18
2022-11-03T10:26:02.064Z,18.2
2022-11-03T10:27:01.995Z,18.3
2022-11-03T10:28:01.957Z,18.5
2022-11-03T10:29:01.885Z,18.2
2022-11-03T10:30:01.927Z,18.7
2022-11-03T10:31:13.165Z,18.8
2022-11-03T10:32:01.433Z,19
2022-11-03T10:33:01.389Z,19.2
2022-11-03T10:34:02.361Z,18.7
2022-11-03T10:35:02.264Z,18.8
2022-11-03T10:36:02.724Z,18.9
2022-11-03T10:37:01.484Z,18.8
2022-11-03T10:38:01.414Z,19.2
2022-11-03T10:39:01.386Z,19.5
2022-11-03T10:40:02.322Z,19.6
2022-11-03T10:41:02.276Z,19.3
2022-11-03T10:42:02.220Z,19.1
2022-11-03T10:43:02.155Z,19.4
2022-11-03T10:44:02.104Z,19.7
2022-11-03T10:45:02.078Z,19.7
2022-11-03T10:46:01.939Z,19.3
2022-11-03T10:47:01.937Z,19.4
2022-11-03T10:48:01.846Z,19.9
2022-11-03T10:49:01.504Z,19.9
2022-11-03T10:50:01.655Z,20
2022-11-03T10:51:01.573Z,20.2
2022-11-03T10:52:01.468Z,20.2
2022-11-03T10:53:01.443Z,20.2
2022-11-03T10:54:01.324Z,20.2
2022-11-03T10:55:02.262Z,20.2
2022-11-03T10:56:02.207Z,20.2
2022-11-03T10:57:02.156Z,20
2022-11-03T10:58:02.292Z,20.2
2022-11-03T10:59:02.221Z,20.3
2022-11-03T11:00:02.188Z,20.2
2022-11-03T11:01:01.392Z,20.3
2022-11-03T11:02:01.590Z,20.2
2022-11-03T11:03:01.992Z,20.2
2022-11-03T11:04:02.085Z,20.3
2022-11-03T11:05:02.117Z,20.6
2022-11-03T11:06:02.057Z,20.5
2022-11-03T11:07:01.929Z,19.8
2022-11-03T11:08:01.891Z,20
2022-11-03T11:09:02.101Z,20.3
2022-11-03T11:10:02.076Z,20.8
2022-11-03T11:11:02.000Z,20.6
2022-11-03T11:12:01.935Z,20.6
2022-11-03T11:13:01.890Z,20.8
2022-11-03T11:14:01.862Z,20.8
2022-11-03T11:15:01.770Z,21.3
2022-11-03T11:16:01.961Z,21.1
2022-11-03T11:17:01.831Z,21
2022-11-03T11:18:01.779Z,20.9
2022-11-03T11:19:01.759Z,20.7
2022-11-03T11:20:01.633Z,20.7
2022-11-03T11:21:01.579Z,21
2022-11-03T11:22:01.457Z,21.3
2022-11-03T11:23:01.439Z,21.1
2022-11-03T11:24:02.057Z,20.8
2022-11-03T11:25:02.023Z,20.5
2022-11-03T11:26:01.917Z,20.7
2022-11-03T11:27:01.938Z,21
2022-11-03T11:28:01.824Z,20.6
2022-11-03T11:29:01.792Z,20.8
2022-11-03T11:30:01.707Z,20.9
2022-11-03T11:31:01.832Z,20.9
2022-11-03T11:32:01.751Z,21
2022-11-03T11:33:01.621Z,20.8
2022-11-03T11:34:01.543Z,20.7
2022-11-03T11:35:01.667Z,21
2022-11-03T11:36:01.546Z,20.6
2022-11-03T11:37:01.492Z,20.4
2022-11-03T11:38:01.416Z,20.5
2022-11-03T11:39:01.341Z,20.6
2022-11-03T11:40:02.308Z,20.7
2022-11-03T11:41:02.218Z,20.8
2022-11-03T11:42:02.158Z,20.5
2022-11-03T11:43:02.060Z,20.2
2022-11-03T11:44:02.020Z,20.8
2022-11-03T11:45:01.967Z,20.6
2022-11-03T11:46:02.129Z,20.8
2022-11-03T11:47:02.086Z,20.6
2022-11-03T11:48:02.023Z,20.4
2022-11-03T11:49:01.955Z,20.6
2022-11-03T11:50:01.919Z,20.9
2022-11-03T11:51:01.845Z,20.5
2022-11-03T11:52:01.739Z,20.4
2022-11-03T11:53:01.685Z,20.8
2022-11-03T11:54:16.972Z,20.9
2022-11-03T11:55:02.313Z,20.2
2022-11-03T11:56:02.230Z,20.8
2022-11-03T11:57:02.199Z,20.7
2022-11-03T11:58:02.146Z,20.6
2022-11-03T11:59:02.081Z,20.5
2022-11-03T12:00:02.055Z,20.6
2022-11-03T12:01:02.197Z,20.2
2022-11-03T12:02:02.271Z,19.8
2022-11-03T12:03:02.313Z,19.7
2022-11-03T12:04:01.532Z,19.9
2022-11-03T12:05:01.719Z,19.6
2022-11-03T12:06:01.802Z,19
2022-11-03T12:07:01.675Z,19
2022-11-03T12:08:01.643Z,19.5
2022-11-03T12:09:01.514Z,19.8
2022-11-03T12:10:01.438Z,19.9
2022-11-03T12:11:01.422Z,19.8
2022-11-03T12:12:06.996Z,19.6
2022-11-03T12:13:01.595Z,19.7
2022-11-03T12:14:01.531Z,19.9
2022-11-03T12:15:01.413Z,20.1
2022-11-03T12:16:01.731Z,20.1
2022-11-03T12:17:01.668Z,20.2
2022-11-03T12:18:01.623Z,20
2022-11-03T12:19:01.516Z,20.1
2022-11-03T12:20:01.391Z,20
2022-11-03T12:21:02.342Z,20.1
2022-11-03T12:22:01.468Z,20.1
2022-11-03T12:23:02.350Z,19.9
2022-11-03T12:24:02.265Z,20.1
2022-11-03T12:25:02.225Z,20.2
2022-11-03T12:26:02.181Z,20.1
2022-11-03T12:27:01.431Z,20
2022-11-03T12:28:02.363Z,19.9
2022-11-03T12:29:02.256Z,20.3
2022-11-03T12:30:02.236Z,20.1
2022-11-03T12:31:01.404Z,20.3
2022-11-03T12:32:01.419Z,20.6
2022-11-03T12:33:02.355Z,20.7
2022-11-03T12:34:02.282Z,20.6
2022-11-03T12:35:02.300Z,20.5
2022-11-03T12:36:02.217Z,20.7
2022-11-03T12:37:02.217Z,20.8
2022-11-03T12:38:02.118Z,20.7
2022-11-03T12:39:02.131Z,20.4
2022-11-03T12:40:02.037Z,20.7
2022-11-03T12:41:01.941Z,19.7
2022-11-03T12:42:01.696Z,20
2022-11-03T12:43:01.738Z,20.3
2022-11-03T12:44:01.776Z,20.2
2022-11-03T12:45:01.589Z,19.8
2022-11-03T12:46:01.442Z,19.9
2022-11-03T12:47:01.408Z,20
2022-11-03T12:48:01.830Z,19.8
2022-11-03T12:49:01.789Z,19.9
2022-11-03T12:50:01.739Z,19.8
2022-11-03T12:51:01.626Z,19.6
2022-11-03T12:52:05.338Z,19.4
2022-11-03T12:53:02.334Z,19.6
2022-11-03T12:54:02.308Z,19.5
2022-11-03T12:55:02.279Z,19.7
2022-11-03T12:56:02.179Z,19.6
2022-11-03T12:57:02.148Z,19.4
2022-11-03T12:58:02.035Z,19.2
2022-11-03T12:59:01.926Z,19.4
2022-11-03T13:00:01.875Z,19.5
2022-11-03T13:01:02.282Z,19.7
2022-11-03T13:02:01.918Z,19.7
2022-11-03T13:03:02.157Z,19.6
2022-11-03T13:04:02.109Z,19.6
2022-11-03T13:05:02.169Z,19.6
2022-11-03T13:06:02.081Z,19.6
2022-11-03T13:07:02.128Z,19.7
2022-11-03T13:08:02.079Z,19.7
2022-11-03T13:09:02.091Z,19.6
2022-11-03T13:10:02.033Z,19.4
2022-11-03T13:11:02.089Z,19.2
2022-11-03T13:12:01.705Z,19.1
2022-11-03T13:13:02.450Z,19.1
2022-11-03T13:14:02.294Z,19.5
2022-11-03T13:15:02.352Z,19.6
2022-11-03T13:16:01.998Z,19.6
2022-11-03T13:17:02.058Z,19.7
2022-11-03T13:18:13.140Z,19.5
2022-11-03T13:19:02.098Z,19.3
2022-11-03T13:20:02.205Z,19.4
2022-11-03T13:21:02.327Z,19.5
2022-11-03T13:22:02.458Z,19.2
2022-11-03T13:23:02.451Z,19
2022-11-03T13:24:02.299Z,19
2022-11-03T13:25:02.357Z,19.1
2022-11-03T13:26:02.252Z,19.1
2022-11-03T13:27:02.380Z,18.6
2022-11-03T13:28:02.085Z,19
2022-11-03T13:29:02.052Z,18.9
2022-11-03T13:30:01.667Z,19
2022-11-03T13:31:01.864Z,19
2022-11-03T13:32:01.880Z,18.8
2022-11-03T13:33:01.699Z,18.8
2022-11-03T13:34:01.761Z,18.5
2022-11-03T13:35:01.592Z,18.6
2022-11-03T13:36:01.706Z,18.6
2022-11-03T13:37:01.798Z,18.4
2022-11-03T13:38:01.745Z,18.3